createdAt,value
2017-11-29T00:00:01.802Z,11.32
2017-11-29T00:02:30.098Z,8.77
2017-11-29T00:04:58.391Z,13.43
2017-11-29T00:07:26.683Z,11.80
2017-11-29T00:09:54.966Z,9.38
2017-11-29T00:12:23.254Z,8.20
2017-11-29T00:14:51.536Z,9.13
2017-11-29T00:17:19.826Z,9.97
2017-11-29T00:19:48.566Z,7.35
2017-11-29T00:22:16.847Z,8.53
2017-11-29T00:24:45.141Z,9.53
2017-11-29T00:27:13.414Z,8.97
2017-11-29T00:29:41.713Z,13.97
2017-11-29T00:32:09.995Z,13.53
2017-11-29T00:34:38.278Z,6.97
2017-11-29T00:37:06.586Z,9.30
2017-11-29T00:39:34.869Z,8.80
2017-11-29T00:42:03.161Z,8.93
2017-11-29T00:44:32.211Z,12.07
2017-11-29T00:47:00.506Z,10.03
2017-11-29T00:49:29.756Z,11.13
2017-11-29T00:51:58.037Z,7.50
2017-11-29T00:54:26.317Z,10.23
2017-11-29T00:56:54.605Z,6.87
2017-11-29T00:59:22.919Z,10.10
2017-11-29T01:01:51.541Z,8.60
2017-11-29T01:04:19.834Z,11.37
2017-11-29T01:06:48.119Z,8.87
2017-11-29T01:09:16.398Z,12.50
2017-11-29T01:11:44.677Z,8.23
2017-11-29T01:14:12.966Z,12.10
2017-11-29T01:16:41.242Z,9.67
2017-11-29T01:19:09.529Z,7.90
2017-11-29T01:21:37.829Z,9.83
2017-11-29T01:24:06.886Z,11.65
2017-11-29T01:26:35.166Z,13.67
2017-11-29T01:29:03.442Z,10.95
2017-11-29T01:31:31.722Z,10.10
2017-11-29T01:34:00.015Z,11.87
2017-11-29T01:36:28.307Z,12.90
2017-11-29T01:38:56.591Z,11.17
2017-11-29T01:41:24.877Z,10.87
2017-11-29T01:43:53.974Z,11.77
2017-11-29T01:46:22.269Z,12.40
2017-11-29T01:48:50.549Z,10.40
2017-11-29T01:51:18.831Z,11.53
2017-11-29T01:53:47.130Z,10.20
2017-11-29T01:56:15.418Z,9.27
2017-11-29T01:58:43.701Z,10.50
2017-11-29T02:01:12.007Z,14.37
2017-11-29T02:03:40.289Z,11.05
2017-11-29T02:06:26.375Z,11.17
2017-11-29T02:08:54.670Z,14.80
2017-11-29T02:11:22.966Z,10.40
2017-11-29T02:13:51.250Z,10.67
2017-11-29T02:16:19.539Z,16.07
2017-11-29T02:18:47.854Z,12.17
2017-11-29T02:21:16.141Z,11.17
2017-11-29T02:23:45.178Z,15.50
2017-11-29T02:26:13.505Z,10.07
2017-11-29T02:28:41.809Z,10.83
2017-11-29T02:31:10.110Z,10.70
2017-11-29T02:33:38.439Z,9.63
2017-11-29T02:36:06.731Z,8.90
2017-11-29T02:38:35.006Z,8.80
2017-11-29T02:41:21.010Z,8.57
2017-11-29T02:43:49.294Z,6.73
2017-11-29T02:46:17.579Z,12.20
2017-11-29T02:48:45.882Z,12.03
2017-11-29T02:51:14.167Z,10.50
2017-11-29T02:53:43.218Z,11.70
2017-11-29T02:56:11.503Z,9.50
2017-11-29T02:58:39.786Z,10.97
2017-11-29T03:01:08.065Z,7.80
2017-11-29T03:03:36.358Z,11.60
2017-11-29T03:06:05.410Z,9.77
2017-11-29T03:08:34.622Z,14.53
2017-11-29T03:11:02.902Z,17.17
2017-11-29T03:13:31.186Z,11.73
2017-11-29T03:15:59.477Z,13.37
2017-11-29T03:18:27.810Z,13.43
2017-11-29T03:20:56.099Z,11.27
2017-11-29T03:23:24.395Z,12.37
2017-11-29T03:25:52.698Z,13.97
2017-11-29T03:28:21.755Z,13.37
2017-11-29T03:30:50.069Z,20.37
2017-11-29T03:33:19.126Z,11.55
2017-11-29T03:35:47.454Z,12.88
2017-11-29T03:38:15.744Z,8.47
2017-11-29T03:40:44.025Z,8.77
2017-11-29T03:43:12.329Z,6.72
2017-11-29T03:45:40.611Z,8.13
2017-11-29T03:48:08.894Z,9.70
2017-11-29T03:50:37.186Z,8.90
2017-11-29T03:53:05.469Z,9.10
2017-11-29T03:55:34.514Z,8.83
2017-11-29T03:58:02.805Z,6.90
2017-11-29T04:00:31.126Z,9.47
2017-11-29T04:02:59.414Z,8.07
2017-11-29T04:05:27.707Z,6.63
2017-11-29T04:07:55.995Z,8.43
2017-11-29T04:10:24.277Z,9.47
2017-11-29T04:12:52.566Z,10.80
2017-11-29T04:15:20.867Z,7.70
2017-11-29T04:17:49.162Z,8.17
2017-11-29T04:20:17.937Z,7.07
2017-11-29T04:22:46.999Z,7.12
2017-11-29T04:25:15.283Z,9.55
2017-11-29T04:27:43.582Z,15.70
2017-11-29T04:30:11.870Z,14.90
2017-11-29T04:32:40.207Z,11.90
2017-11-29T04:35:08.490Z,9.83
2017-11-29T04:37:37.539Z,7.60
2017-11-29T04:40:05.833Z,11.80
2017-11-29T04:42:34.157Z,11.70
2017-11-29T04:45:02.445Z,12.88
2017-11-29T04:47:30.780Z,11.33
2017-11-29T04:49:59.075Z,11.63
2017-11-29T04:52:27.350Z,13.23
2017-11-29T04:54:55.647Z,7.63
2017-11-29T04:57:23.936Z,6.90
2017-11-29T04:59:52.246Z,10.77
2017-11-29T05:02:20.522Z,9.53
2017-11-29T05:04:48.812Z,10.13
2017-11-29T05:07:17.098Z,9.47
2017-11-29T05:09:45.390Z,10.85
2017-11-29T05:12:13.673Z,6.25
2017-11-29T05:14:41.962Z,9.00
2017-11-29T05:17:10.267Z,7.70
2017-11-29T05:19:38.545Z,8.30
2017-11-29T05:22:06.835Z,10.50
2017-11-29T05:24:35.114Z,7.97
2017-11-29T05:27:03.402Z,9.98
2017-11-29T05:29:31.693Z,11.53
2017-11-29T05:31:59.978Z,9.00
2017-11-29T05:34:28.270Z,12.13
2017-11-29T05:36:56.555Z,11.03
2017-11-29T05:39:24.849Z,13.03
2017-11-29T05:41:53.139Z,13.27
2017-11-29T05:44:21.491Z,9.97
2017-11-29T05:46:49.823Z,17.60
2017-11-29T05:49:18.122Z,11.70
2017-11-29T05:51:47.169Z,14.23
2017-11-29T05:54:15.437Z,15.80
2017-11-29T05:56:45.263Z,10.90
2017-11-29T05:59:13.554Z,10.70
2017-11-29T06:01:41.845Z,10.40
2017-11-29T06:04:10.137Z,15.07
2017-11-29T06:06:39.225Z,12.77
2017-11-29T06:09:07.510Z,15.27
2017-11-29T06:11:36.570Z,14.37
2017-11-29T06:14:04.873Z,12.40
2017-11-29T06:16:33.174Z,13.43
2017-11-29T06:19:01.474Z,11.23
2017-11-29T06:21:29.753Z,16.57
2017-11-29T06:23:58.045Z,17.37
2017-11-29T06:26:26.342Z,18.63
2017-11-29T06:28:54.638Z,14.87
2017-11-29T06:31:22.958Z,12.97
2017-11-29T06:33:51.250Z,14.00
2017-11-29T06:36:19.534Z,20.73
2017-11-29T06:38:47.825Z,14.13
2017-11-29T06:41:16.120Z,15.70
2017-11-29T06:43:45.174Z,13.27
2017-11-29T06:46:15.463Z,18.40
2017-11-29T06:48:43.749Z,15.93
2017-11-29T06:51:12.046Z,16.30
2017-11-29T06:53:40.331Z,21.73
2017-11-29T06:56:08.617Z,16.73
2017-11-29T06:58:36.890Z,18.80
2017-11-29T07:01:05.173Z,20.17
2017-11-29T07:03:33.466Z,18.50
2017-11-29T07:06:01.750Z,14.80
2017-11-29T07:08:30.815Z,14.20
2017-11-29T07:10:59.098Z,17.07
2017-11-29T07:13:27.400Z,13.60
2017-11-29T07:15:56.457Z,11.97
2017-11-29T07:18:24.782Z,13.80
2017-11-29T07:20:53.070Z,11.40
2017-11-29T07:23:21.366Z,10.48
2017-11-29T07:25:49.674Z,15.30
2017-11-29T07:28:17.963Z,11.90
2017-11-29T07:30:46.256Z,19.05
2017-11-29T07:33:15.308Z,15.77
2017-11-29T07:35:43.580Z,17.97
2017-11-29T07:38:11.884Z,15.03
2017-11-29T07:40:40.187Z,11.80
2017-11-29T07:43:08.481Z,19.20
2017-11-29T07:45:36.771Z,16.63
2017-11-29T07:48:05.090Z,24.47
2017-11-29T07:50:33.383Z,15.20
2017-11-29T07:53:01.689Z,10.87
2017-11-29T07:55:29.988Z,16.50
2017-11-29T07:57:58.289Z,16.37
2017-11-29T08:00:26.592Z,14.13
2017-11-29T08:02:54.910Z,12.27
2017-11-29T08:05:23.198Z,16.97
2017-11-29T08:07:51.479Z,17.62
2017-11-29T08:10:19.773Z,19.92
2017-11-29T08:12:48.057Z,15.87
2017-11-29T08:15:17.863Z,22.20
2017-11-29T08:17:46.163Z,20.93
2017-11-29T08:20:15.465Z,20.68
2017-11-29T08:22:44.527Z,16.83
2017-11-29T08:25:12.807Z,18.87
2017-11-29T08:27:41.125Z,18.90
2017-11-29T08:30:09.425Z,14.93
2017-11-29T08:32:37.718Z,18.10
2017-11-29T08:35:06.004Z,16.57
2017-11-29T08:37:34.294Z,18.23
2017-11-29T08:40:02.587Z,23.50
2017-11-29T08:42:31.658Z,20.25
2017-11-29T08:44:59.957Z,15.30
2017-11-29T08:47:28.278Z,19.13
2017-11-29T08:49:56.562Z,18.00
2017-11-29T08:52:24.911Z,19.63
2017-11-29T08:54:53.211Z,17.60
2017-11-29T08:57:21.503Z,20.00
2017-11-29T08:59:49.792Z,23.63
2017-11-29T09:02:18.078Z,17.13
2017-11-29T09:04:47.791Z,24.83
2017-11-29T09:07:16.107Z,53.87
2017-11-29T09:09:44.399Z,33.93
2017-11-29T09:12:13.190Z,27.83
2017-11-29T09:14:41.497Z,18.03
2017-11-29T09:17:09.792Z,28.27
2017-11-29T09:19:38.859Z,21.87
2017-11-29T09:22:07.157Z,18.03
2017-11-29T09:24:35.481Z,19.55
2017-11-29T09:27:03.772Z,17.20
2017-11-29T09:29:32.102Z,21.23
2017-11-29T09:32:00.483Z,19.48
2017-11-29T09:34:29.598Z,22.17
2017-11-29T09:36:57.917Z,19.70
2017-11-29T09:39:26.253Z,19.70
2017-11-29T09:41:54.558Z,22.97
2017-11-29T09:44:22.884Z,17.60
2017-11-29T09:46:52.531Z,19.47
2017-11-29T09:49:20.815Z,20.10
2017-11-29T09:51:49.110Z,21.77
2017-11-29T09:54:17.402Z,16.95
2017-11-29T09:56:45.739Z,15.17
2017-11-29T09:59:14.053Z,18.67
2017-11-29T10:01:42.350Z,20.40
2017-11-29T10:04:10.676Z,14.67
2017-11-29T10:06:38.962Z,20.25
2017-11-29T10:09:07.291Z,15.98
2017-11-29T10:11:36.377Z,18.80
2017-11-29T10:14:04.680Z,14.83
2017-11-29T10:16:32.987Z,14.27
2017-11-29T10:19:01.734Z,19.60
2017-11-29T10:21:30.781Z,13.17
2017-11-29T10:23:59.103Z,15.40
2017-11-29T10:26:28.158Z,14.70
2017-11-29T10:28:56.458Z,22.67
2017-11-29T10:31:25.525Z,18.20
2017-11-29T10:33:53.822Z,18.07
2017-11-29T10:36:22.147Z,14.83
2017-11-29T10:38:50.453Z,15.13
2017-11-29T10:41:18.741Z,14.43
2017-11-29T10:43:48.359Z,16.77
2017-11-29T10:46:16.650Z,15.50
2017-11-29T10:48:45.688Z,16.83
2017-11-29T10:51:13.991Z,15.57
2017-11-29T10:53:42.278Z,19.40
2017-11-29T10:56:10.566Z,15.70
2017-11-29T10:58:38.857Z,14.73
2017-11-29T11:01:07.920Z,15.40
2017-11-29T11:03:36.251Z,15.43
2017-11-29T11:06:04.546Z,13.97
2017-11-29T11:08:32.878Z,17.17
2017-11-29T11:11:01.189Z,14.80
2017-11-29T11:13:29.469Z,20.70
2017-11-29T11:15:57.769Z,16.43
2017-11-29T11:18:26.078Z,15.73
2017-11-29T11:20:54.394Z,15.70
2017-11-29T11:23:22.681Z,13.43
2017-11-29T11:25:50.976Z,13.70
2017-11-29T11:28:19.300Z,14.30
2017-11-29T11:30:47.618Z,15.67
2017-11-29T11:33:15.907Z,16.17
2017-11-29T11:35:44.221Z,13.50
2017-11-29T11:38:13.265Z,11.40
2017-11-29T11:40:41.582Z,14.23
2017-11-29T11:43:09.871Z,12.40
2017-11-29T11:45:38.172Z,9.30
2017-11-29T11:48:06.485Z,11.75
2017-11-29T11:50:34.774Z,11.73
2017-11-29T11:53:03.090Z,13.20
2017-11-29T11:55:31.413Z,10.47
2017-11-29T11:58:00.011Z,12.43
2017-11-29T12:00:28.318Z,13.53
2017-11-29T12:02:57.366Z,9.47
2017-11-29T12:05:25.653Z,10.53
2017-11-29T12:07:53.950Z,9.73
2017-11-29T12:10:22.234Z,7.27
2017-11-29T12:12:50.544Z,11.57
2017-11-29T12:15:18.841Z,10.47
2017-11-29T12:17:47.157Z,9.73
2017-11-29T12:20:15.476Z,8.80
2017-11-29T12:22:43.760Z,8.75
2017-11-29T12:25:12.106Z,9.53
2017-11-29T12:27:41.155Z,9.73
2017-11-29T12:30:09.438Z,12.53
2017-11-29T12:32:37.733Z,9.70
2017-11-29T12:35:06.027Z,9.37
2017-11-29T12:37:35.090Z,9.33
2017-11-29T12:40:03.382Z,9.10
2017-11-29T12:42:32.437Z,11.40
2017-11-29T12:45:00.725Z,9.93
2017-11-29T12:47:29.009Z,9.80
2017-11-29T12:50:15.682Z,13.33
2017-11-29T12:52:43.975Z,9.18
2017-11-29T12:55:12.254Z,9.03
2017-11-29T12:57:40.551Z,11.30
2017-11-29T13:00:08.841Z,11.83
2017-11-29T13:02:37.134Z,11.23
2017-11-29T13:05:06.206Z,9.90
2017-11-29T13:07:34.558Z,12.00
2017-11-29T13:10:02.852Z,10.57
2017-11-29T13:12:31.146Z,11.07
2017-11-29T13:14:59.437Z,10.77
2017-11-29T13:17:27.734Z,8.53
2017-11-29T13:19:56.035Z,8.60
2017-11-29T13:22:24.317Z,9.23
2017-11-29T13:24:52.621Z,10.10
2017-11-29T13:27:20.903Z,11.40
2017-11-29T13:29:49.957Z,9.37
2017-11-29T13:32:18.240Z,7.30
2017-11-29T13:34:46.515Z,10.00
2017-11-29T13:37:14.821Z,9.27
2017-11-29T13:39:43.112Z,9.70
2017-11-29T13:42:12.178Z,7.63
2017-11-29T13:44:40.455Z,6.53
2017-11-29T13:47:08.735Z,6.78
2017-11-29T13:49:37.021Z,6.40
2017-11-29T13:52:05.317Z,7.00
2017-11-29T13:54:34.361Z,6.00
2017-11-29T13:57:02.711Z,8.70
2017-11-29T13:59:31.002Z,6.27
2017-11-29T14:01:59.350Z,5.30
2017-11-29T14:04:27.655Z,5.20
2017-11-29T14:06:55.947Z,7.53
2017-11-29T14:09:24.220Z,6.10
2017-11-29T14:11:52.545Z,5.43
2017-11-29T14:14:21.596Z,5.20
2017-11-29T14:16:49.901Z,7.33
2017-11-29T14:19:18.195Z,5.60
2017-11-29T14:21:46.510Z,6.43
2017-11-29T14:24:14.772Z,6.03
2017-11-29T14:26:43.703Z,4.78
2017-11-29T14:29:11.992Z,6.70
2017-11-29T14:31:40.286Z,5.65
2017-11-29T14:34:09.334Z,5.40
2017-11-29T14:36:37.609Z,5.77
2017-11-29T14:39:06.602Z,4.80
2017-11-29T14:41:34.886Z,5.93
2017-11-29T14:44:03.182Z,9.47
2017-11-29T14:46:32.410Z,5.43
2017-11-29T14:49:01.460Z,4.83
2017-11-29T14:51:30.678Z,5.17
2017-11-29T14:53:59.738Z,4.60
2017-11-29T14:56:28.022Z,5.77
2017-11-29T14:58:56.306Z,7.62
2017-11-29T15:01:24.598Z,5.77
2017-11-29T15:03:52.883Z,10.53
2017-11-29T15:06:21.927Z,5.30
2017-11-29T15:08:50.209Z,6.70
2017-11-29T15:11:18.500Z,7.80
2017-11-29T15:13:46.772Z,7.30
2017-11-29T15:16:15.035Z,6.47
2017-11-29T15:18:43.314Z,8.77
2017-11-29T15:21:11.839Z,5.90
2017-11-29T15:23:41.003Z,7.50
2017-11-29T15:26:09.309Z,8.67
2017-11-29T15:28:37.609Z,9.30
2017-11-29T15:31:05.949Z,7.00
2017-11-29T15:33:34.657Z,9.80
2017-11-29T15:36:03.705Z,6.97
2017-11-29T15:38:32.662Z,9.38
2017-11-29T15:41:00.938Z,7.53
2017-11-29T15:43:29.233Z,9.73
2017-11-29T15:45:57.511Z,7.17
2017-11-29T15:48:25.799Z,6.57
2017-11-29T15:50:54.879Z,6.70
2017-11-29T15:53:23.190Z,6.20
2017-11-29T15:55:51.499Z,5.37
2017-11-29T15:58:19.817Z,6.60
2017-11-29T16:00:48.106Z,8.95
2017-11-29T16:03:16.453Z,7.30
2017-11-29T16:05:44.723Z,8.83
2017-11-29T16:08:13.536Z,6.40
2017-11-29T16:10:41.829Z,8.48
2017-11-29T16:13:10.143Z,8.00
2017-11-29T16:15:39.213Z,7.40
2017-11-29T16:18:07.494Z,4.70
2017-11-29T16:20:35.787Z,7.60
2017-11-29T16:23:04.837Z,5.50
2017-11-29T16:25:33.168Z,5.87
2017-11-29T16:28:01.540Z,8.00
2017-11-29T16:30:29.848Z,4.83
2017-11-29T16:32:58.137Z,13.67
2017-11-29T16:35:26.422Z,5.37
2017-11-29T16:37:54.710Z,2.60
2017-11-29T16:40:22.987Z,2.83
2017-11-29T16:42:51.459Z,5.03
2017-11-29T16:45:19.748Z,4.93
2017-11-29T16:47:48.033Z,6.77
2017-11-29T16:50:16.385Z,17.92
2017-11-29T16:52:44.674Z,10.77
2017-11-29T16:55:12.962Z,6.37
2017-11-29T16:57:41.327Z,6.25
2017-11-29T17:00:09.622Z,5.97
2017-11-29T17:02:37.911Z,6.60
2017-11-29T17:05:06.208Z,7.50
2017-11-29T17:07:34.494Z,6.13
2017-11-29T17:10:02.786Z,6.90
2017-11-29T17:12:31.087Z,5.63
2017-11-29T17:14:59.367Z,7.03
2017-11-29T17:17:27.640Z,4.20
2017-11-29T17:19:55.917Z,7.13
2017-11-29T17:22:24.200Z,5.97
2017-11-29T17:24:52.482Z,5.82
2017-11-29T17:27:21.830Z,5.70
2017-11-29T17:30:10.845Z,5.40
2017-11-29T17:32:39.137Z,4.90
2017-11-29T17:35:07.422Z,7.30
2017-11-29T17:37:36.466Z,12.07
2017-11-29T17:40:04.759Z,11.10
2017-11-29T17:42:33.051Z,14.40
2017-11-29T17:45:01.339Z,8.13
2017-11-29T17:47:29.639Z,21.77
2017-11-29T17:49:57.925Z,30.17
2017-11-29T17:52:26.208Z,23.63
2017-11-29T17:54:54.510Z,20.47
2017-11-29T17:57:22.793Z,12.30
2017-11-29T17:59:51.080Z,11.83
2017-11-29T18:02:19.459Z,10.37
2017-11-29T18:04:47.792Z,9.25
2017-11-29T18:07:16.087Z,8.97
2017-11-29T18:09:44.388Z,13.03
2017-11-29T18:12:12.700Z,18.30
2017-11-29T18:14:41.279Z,15.07
2017-11-29T18:17:09.630Z,23.93
2017-11-29T18:19:38.757Z,41.43
2017-11-29T18:22:07.965Z,20.67
2017-11-29T18:24:36.266Z,10.10
2017-11-29T18:27:04.621Z,14.37
2017-11-29T18:29:32.963Z,8.40
2017-11-29T18:32:01.341Z,9.45
2017-11-29T18:34:29.639Z,8.33
2017-11-29T18:36:58.811Z,8.50
2017-11-29T18:39:27.133Z,9.90
2017-11-29T18:41:55.722Z,10.30
2017-11-29T18:44:24.316Z,8.67
2017-11-29T18:46:52.920Z,12.30
2017-11-29T18:49:21.615Z,10.55
2017-11-29T18:51:50.757Z,13.20
2017-11-29T18:54:19.202Z,10.13
2017-11-29T18:56:48.188Z,9.77
2017-11-29T18:59:17.591Z,16.37
2017-11-29T19:01:46.597Z,14.13
2017-11-29T19:04:15.750Z,14.20
2017-11-29T19:06:46.299Z,13.77
2017-11-29T19:09:14.646Z,15.90
2017-11-29T19:11:43.065Z,12.27
2017-11-29T19:14:11.735Z,16.90
2017-11-29T19:16:42.650Z,120.90
2017-11-29T19:19:12.459Z,53.87
2017-11-29T19:21:42.162Z,28.50
2017-11-29T19:24:11.959Z,24.93
2017-11-29T19:26:42.177Z,11.80
2017-11-29T19:29:12.016Z,16.37
2017-11-29T19:31:42.058Z,15.80
2017-11-29T19:34:11.829Z,13.40
2017-11-29T19:36:44.263Z,10.60
2017-11-29T19:39:15.380Z,14.07
2017-11-29T19:41:45.164Z,15.70
2017-11-29T19:44:15.014Z,17.23
2017-11-29T19:46:45.932Z,16.17
2017-11-29T19:49:15.667Z,13.50
2017-11-29T19:51:45.457Z,12.97
2017-11-29T19:54:15.343Z,19.30
2017-11-29T19:56:51.662Z,11.70
2017-11-29T19:59:21.586Z,14.63
2017-11-29T20:01:51.362Z,12.23
2017-11-29T20:04:21.327Z,14.50
2017-11-29T20:06:52.604Z,9.97
2017-11-29T20:09:22.372Z,12.87
2017-11-29T20:11:52.404Z,16.53
2017-11-29T20:14:22.657Z,16.70
2017-11-29T20:16:53.278Z,10.80
2017-11-29T20:19:24.122Z,12.23
2017-11-29T20:21:54.839Z,14.23
2017-11-29T20:24:25.611Z,15.70
2017-11-29T20:26:57.277Z,14.47
2017-11-29T20:29:27.103Z,12.00
2017-11-29T20:31:56.977Z,20.50
2017-11-29T20:34:26.778Z,15.75
2017-11-29T20:36:56.841Z,15.88
2017-11-29T20:39:27.577Z,21.30
2017-11-29T20:41:57.450Z,32.13
2017-11-29T20:44:27.313Z,18.60
2017-11-29T20:46:57.135Z,18.02
2017-11-29T20:49:26.978Z,14.97
2017-11-29T20:51:57.546Z,15.07
2017-11-29T20:54:27.405Z,13.10
2017-11-29T20:56:57.254Z,19.10
2017-11-29T20:59:27.217Z,16.33
2017-11-29T21:01:57.202Z,17.53
2017-11-29T21:04:27.014Z,18.80
2017-11-29T21:06:56.829Z,19.20
2017-11-29T21:09:26.480Z,18.17
2017-11-29T21:11:56.293Z,24.00
2017-11-29T21:14:26.114Z,17.20
2017-11-29T21:16:56.090Z,17.70
2017-11-29T21:19:26.769Z,16.67
2017-11-29T21:22:02.443Z,19.42
2017-11-29T21:24:33.138Z,11.67
2017-11-29T21:27:02.937Z,42.75
2017-11-29T21:29:32.119Z,23.03
2017-11-29T21:32:00.873Z,20.50
2017-11-29T21:34:29.635Z,25.30
2017-11-29T21:36:57.955Z,37.17
2017-11-29T21:39:26.309Z,52.23
2017-11-29T21:41:54.609Z,32.40
2017-11-29T21:44:22.924Z,19.63
2017-11-29T21:46:51.976Z,19.00
2017-11-29T21:49:20.256Z,23.17
2017-11-29T21:51:48.571Z,39.27
2017-11-29T21:54:17.636Z,20.27
2017-11-29T21:56:45.923Z,20.63
2017-11-29T21:59:14.936Z,19.50
2017-11-29T22:01:44.007Z,27.27
2017-11-29T22:04:12.332Z,20.75
2017-11-29T22:06:41.535Z,23.00
2017-11-29T22:09:09.818Z,20.60
2017-11-29T22:11:38.106Z,24.70
2017-11-29T22:14:06.402Z,21.00
2017-11-29T22:16:34.835Z,43.70
2017-11-29T22:19:03.125Z,18.55
2017-11-29T22:21:31.422Z,24.27
2017-11-29T22:23:59.727Z,18.10
2017-11-29T22:26:28.012Z,29.60
2017-11-29T22:28:57.068Z,17.58
2017-11-29T22:31:27.098Z,15.33
2017-11-29T22:33:55.390Z,21.87
2017-11-29T22:36:23.681Z,22.17
2017-11-29T22:38:52.743Z,27.67
2017-11-29T22:41:21.040Z,46.17
2017-11-29T22:43:49.330Z,21.00
2017-11-29T22:46:17.638Z,28.57
2017-11-29T22:48:45.923Z,45.83
2017-11-29T22:51:14.206Z,15.63
2017-11-29T22:53:42.520Z,22.03
2017-11-29T22:56:10.818Z,18.97
2017-11-29T22:58:39.112Z,35.50
2017-11-29T23:01:07.401Z,34.50
2017-11-29T23:03:35.693Z,15.63
2017-11-29T23:06:03.987Z,31.77
2017-11-29T23:08:32.278Z,18.90
2017-11-29T23:11:00.629Z,19.45
2017-11-29T23:13:28.914Z,18.33
2017-11-29T23:15:57.229Z,16.87
2017-11-29T23:18:25.514Z,13.07
2017-11-29T23:20:53.817Z,14.40
2017-11-29T23:23:22.129Z,15.60
2017-11-29T23:25:50.431Z,17.00
2017-11-29T23:28:18.826Z,15.00
2017-11-29T23:30:47.140Z,24.50
2017-11-29T23:33:15.437Z,22.48
2017-11-29T23:35:43.723Z,21.20
2017-11-29T23:38:12.841Z,22.17
2017-11-29T23:40:41.915Z,28.60
2017-11-29T23:43:10.315Z,30.43
2017-11-29T23:45:39.169Z,26.83
2017-11-29T23:48:07.466Z,22.23
2017-11-29T23:50:35.803Z,25.53
2017-11-29T23:53:04.100Z,18.60
2017-11-29T23:55:32.418Z,17.57
2017-11-29T23:58:00.709Z,18.13
